createdAt,value
2017-10-29T00:00:42.817Z,13.84
2017-10-29T00:01:42.774Z,13.8
2017-10-29T00:02:42.768Z,13.76
2017-10-29T00:03:42.080Z,13.79
2017-10-29T00:04:42.400Z,13.88
2017-10-29T00:05:42.722Z,13.83
2017-10-29T00:06:42.370Z,13.88
2017-10-29T00:07:42.024Z,13.91
2017-10-29T00:08:42.337Z,13.87
2017-10-29T00:09:41.987Z,13.79
2017-10-29T00:10:42.311Z,13.87
2017-10-29T00:11:42.293Z,13.79
2017-10-29T00:12:42.617Z,13.87
2017-10-29T00:13:41.928Z,13.87
2017-10-29T00:14:42.574Z,13.88
2017-10-29T00:15:42.232Z,13.81
2017-10-29T00:16:41.880Z,13.79
2017-10-29T00:17:42.537Z,13.79
2017-10-29T00:18:42.517Z,13.76
2017-10-29T00:19:42.501Z,13.8
2017-10-29T00:20:42.147Z,13.87
2017-10-29T00:21:42.478Z,13.84
2017-10-29T00:22:42.457Z,13.79
2017-10-29T00:23:41.778Z,13.81
2017-10-29T00:24:42.433Z,13.84
2017-10-29T00:25:42.414Z,13.81
2017-10-29T00:26:42.065Z,13.77
2017-10-29T00:27:42.050Z,13.84
2017-10-29T00:28:42.362Z,13.79
2017-10-29T00:29:42.353Z,13.81
2017-10-29T00:30:41.999Z,13.8
2017-10-29T00:31:41.990Z,13.83
2017-10-29T00:32:42.304Z,13.8
2017-10-29T00:33:41.618Z,13.88
2017-10-29T00:34:41.939Z,13.8
2017-10-29T00:35:42.266Z,13.81
2017-10-29T00:36:41.922Z,13.79
2017-10-29T00:37:41.896Z,13.84
2017-10-29T00:38:42.227Z,13.81
2017-10-29T00:39:42.202Z,13.84
2017-10-29T00:40:42.184Z,13.79
2017-10-29T00:41:42.173Z,13.81
2017-10-29T00:42:41.879Z,13.77
2017-10-29T00:43:41.818Z,13.83
2017-10-29T00:44:41.794Z,13.73
2017-10-29T00:45:42.333Z,13.8
2017-10-29T00:46:41.978Z,13.84
2017-10-29T00:47:41.821Z,13.79
2017-10-29T00:48:42.263Z,13.79
2017-10-29T00:49:41.713Z,13.81
2017-10-29T00:50:42.044Z,13.83
2017-10-29T00:51:41.678Z,13.81
2017-10-29T00:52:41.334Z,13.8
2017-10-29T00:53:41.991Z,13.87
2017-10-29T00:54:41.635Z,13.73
2017-10-29T00:55:41.955Z,13.71
2017-10-29T00:56:41.267Z,13.76
2017-10-29T00:57:41.595Z,13.61
2017-10-29T00:58:41.911Z,13.62
2017-10-29T00:59:41.573Z,13.65
2017-10-29T01:00:41.882Z,13.61
2017-10-29T01:01:41.533Z,13.56
2017-10-29T01:02:41.520Z,13.52
2017-10-29T01:03:41.852Z,13.54
2017-10-29T01:04:41.484Z,13.54
2017-10-29T01:05:41.478Z,13.54
2017-10-29T01:06:41.456Z,13.55
2017-10-29T01:07:41.117Z,13.46
2017-10-29T01:08:41.761Z,13.51
2017-10-29T01:09:41.412Z,13.54
2017-10-29T01:10:41.391Z,13.55
2017-10-29T01:11:41.384Z,13.56
2017-10-29T01:12:41.373Z,13.49
2017-10-29T01:13:41.342Z,13.56
2017-10-29T01:14:41.696Z,13.55
2017-10-29T01:15:41.686Z,13.62
2017-10-29T01:16:41.638Z,13.63
2017-10-29T01:17:41.288Z,13.56
2017-10-29T01:18:41.603Z,13.56
2017-10-29T01:19:41.257Z,13.69
2017-10-29T01:20:40.903Z,13.65
2017-10-29T01:21:41.228Z,13.63
2017-10-29T01:22:40.892Z,13.63
2017-10-29T01:23:41.545Z,13.79
2017-10-29T01:24:40.846Z,13.71
2017-10-29T01:25:41.165Z,13.79
2017-10-29T01:26:41.482Z,13.63
2017-10-29T01:27:40.801Z,13.73
2017-10-29T01:28:41.130Z,13.74
2017-10-29T01:29:41.517Z,13.74
2017-10-29T01:30:41.097Z,13.65
2017-10-29T01:31:41.074Z,13.63
2017-10-29T01:32:41.428Z,13.73
2017-10-29T01:33:41.044Z,13.71
2017-10-29T01:34:41.025Z,13.7
2017-10-29T01:35:41.348Z,13.7
2017-10-29T01:36:41.328Z,13.63
2017-10-29T01:37:41.310Z,13.67
2017-10-29T01:38:40.974Z,13.65
2017-10-29T01:39:40.945Z,13.67
2017-10-29T01:40:40.933Z,13.67
2017-10-29T01:41:40.914Z,13.67
2017-10-29T01:42:41.248Z,13.65
2017-10-29T01:43:41.219Z,13.61
2017-10-29T01:44:41.211Z,13.65
2017-10-29T01:45:41.189Z,13.69
2017-10-29T01:46:41.175Z,13.7
2017-10-29T01:47:40.498Z,13.76
2017-10-29T01:48:40.477Z,13.61
2017-10-29T01:49:40.797Z,13.69
2017-10-29T01:50:40.456Z,13.61
2017-10-29T01:51:41.109Z,13.65
2017-10-29T01:52:41.079Z,13.71
2017-10-29T01:53:41.077Z,13.61
2017-10-29T01:54:40.388Z,13.65
2017-10-29T01:55:40.376Z,13.63
2017-10-29T01:56:40.697Z,13.63
2017-10-29T01:57:40.675Z,13.62
2017-10-29T01:58:40.667Z,13.65
2017-10-29T01:59:40.307Z,13.65
2017-10-29T02:00:40.973Z,13.67
2017-10-29T02:01:40.646Z,13.63
2017-10-29T02:02:40.940Z,13.69
2017-10-29T02:03:40.582Z,13.76
2017-10-29T02:04:40.572Z,13.8
2017-10-29T02:05:40.893Z,13.73
2017-10-29T02:06:40.532Z,13.74
2017-10-29T02:07:40.850Z,13.8
2017-10-29T02:08:40.183Z,13.74
2017-10-29T02:09:40.837Z,13.76
2017-10-29T02:10:40.807Z,13.76
2017-10-29T02:11:40.134Z,13.74
2017-10-29T02:12:40.455Z,13.67
2017-10-29T02:13:40.102Z,13.63
2017-10-29T02:14:40.415Z,13.71
2017-10-29T02:15:40.397Z,13.7
2017-10-29T02:16:40.056Z,13.59
2017-10-29T02:17:40.698Z,13.65
2017-10-29T02:18:40.025Z,13.56
2017-10-29T02:19:40.003Z,13.65
2017-10-29T02:20:40.327Z,13.65
2017-10-29T02:21:40.301Z,13.59
2017-10-29T02:22:40.300Z,13.59
2017-10-29T02:23:40.278Z,13.59
2017-10-29T02:24:40.274Z,13.59
2017-10-29T02:25:40.245Z,13.61
2017-10-29T02:26:40.560Z,13.61
2017-10-29T02:27:40.228Z,13.58
2017-10-29T02:28:40.530Z,13.65
2017-10-29T02:29:40.516Z,13.55
2017-10-29T02:30:40.167Z,13.58
2017-10-29T02:31:40.495Z,13.63
2017-10-29T02:32:40.471Z,13.59
2017-10-29T02:33:39.795Z,13.59
2017-10-29T02:34:40.111Z,13.55
2017-10-29T02:35:40.096Z,13.58
2017-10-29T02:36:40.081Z,13.65
2017-10-29T02:37:39.734Z,13.56
2017-10-29T02:38:40.055Z,13.61
2017-10-29T02:39:40.372Z,13.63
2017-10-29T02:40:40.363Z,13.56
2017-10-29T02:41:40.002Z,13.62
2017-10-29T02:42:40.323Z,13.58
2017-10-29T02:43:40.310Z,13.63
2017-10-29T02:44:40.290Z,13.59
2017-10-29T02:45:39.605Z,13.61
2017-10-29T02:46:40.276Z,13.55
2017-10-29T02:47:39.914Z,13.61
2017-10-29T02:48:39.898Z,13.59
2017-10-29T02:49:39.882Z,13.62
2017-10-29T02:50:40.205Z,13.73
2017-10-29T02:51:40.204Z,13.54
2017-10-29T02:52:40.177Z,13.61
2017-10-29T02:53:39.823Z,13.62
2017-10-29T02:54:40.142Z,13.58
2017-10-29T02:55:40.142Z,13.61
2017-10-29T02:56:39.439Z,13.63
2017-10-29T02:57:40.099Z,13.54
2017-10-29T02:58:39.750Z,13.47
2017-10-29T02:59:40.090Z,13.38
2017-10-29T03:00:39.715Z,13.41
2017-10-29T03:01:39.702Z,13.4
2017-10-29T03:02:39.354Z,13.46
2017-10-29T03:03:39.676Z,13.32
2017-10-29T03:04:39.702Z,13.27
2017-10-29T03:05:39.975Z,13.24
2017-10-29T03:06:39.660Z,13.25
2017-10-29T03:07:39.607Z,13.09
2017-10-29T03:08:39.594Z,13.07
2017-10-29T03:09:39.588Z,12.95
2017-10-29T03:10:39.567Z,12.92
2017-10-29T03:11:39.553Z,12.85
2017-10-29T03:12:39.875Z,12.82
2017-10-29T03:13:39.519Z,12.82
2017-10-29T03:14:39.840Z,12.78
2017-10-29T03:15:39.827Z,12.69
2017-10-29T03:16:39.813Z,12.69
2017-10-29T03:17:39.457Z,12.67
2017-10-29T03:18:39.773Z,12.6
2017-10-29T03:19:39.477Z,12.56
2017-10-29T03:20:39.743Z,12.57
2017-10-29T03:21:39.062Z,12.59
2017-10-29T03:22:39.379Z,12.62
2017-10-29T03:23:39.028Z,12.6
2017-10-29T03:24:39.355Z,12.59
2017-10-29T03:25:39.012Z,12.49
2017-10-29T03:26:39.520Z,12.62
2017-10-29T03:27:39.181Z,12.52
2017-10-29T03:28:38.948Z,12.62
2017-10-29T03:29:39.290Z,12.52
2017-10-29T03:30:39.326Z,12.51
2017-10-29T03:31:39.240Z,12.57
2017-10-29T03:32:39.553Z,12.59
2017-10-29T03:33:39.541Z,12.67
2017-10-29T03:34:39.230Z,12.6
2017-10-29T03:35:39.183Z,12.52
2017-10-29T03:36:39.163Z,12.54
2017-10-29T03:37:39.483Z,12.57
2017-10-29T03:38:39.131Z,12.57
2017-10-29T03:39:39.451Z,12.48
2017-10-29T03:40:39.107Z,12.51
2017-10-29T03:41:39.416Z,12.44
2017-10-29T03:42:39.058Z,12.45
2017-10-29T03:43:39.046Z,12.52
2017-10-29T03:44:39.027Z,12.52
2017-10-29T03:45:39.012Z,12.49
2017-10-29T03:46:38.996Z,12.51
2017-10-29T03:47:38.987Z,12.46
2017-10-29T03:48:38.966Z,12.39
2017-10-29T03:49:38.619Z,12.45
2017-10-29T03:50:38.599Z,12.49
2017-10-29T03:51:38.935Z,12.38
2017-10-29T03:52:38.574Z,12.38
2017-10-29T03:53:38.893Z,12.41
2017-10-29T03:54:38.541Z,12.34
2017-10-29T03:55:38.870Z,12.37
2017-10-29T03:56:38.848Z,12.42
2017-10-29T03:57:38.827Z,12.39
2017-10-29T03:58:39.140Z,12.21
2017-10-29T03:59:38.457Z,12.21
2017-10-29T04:00:39.160Z,12.24
2017-10-29T04:01:38.779Z,12.23
2017-10-29T04:02:39.084Z,12.08
2017-10-29T04:03:38.737Z,12.06
2017-10-29T04:04:38.719Z,12.08
2017-10-29T04:05:38.365Z,12.01
2017-10-29T04:06:38.681Z,11.86
2017-10-29T04:07:38.334Z,11.89
2017-10-29T04:08:38.652Z,11.85
2017-10-29T04:09:38.641Z,11.78
2017-10-29T04:10:38.953Z,11.65
2017-10-29T04:11:38.600Z,11.68
2017-10-29T04:12:38.588Z,11.7
2017-10-29T04:13:38.920Z,11.65
2017-10-29T04:14:38.560Z,11.71
2017-10-29T04:15:38.544Z,11.67
2017-10-29T04:16:38.187Z,11.68
2017-10-29T04:17:38.179Z,11.67
2017-10-29T04:18:38.831Z,11.67
2017-10-29T04:19:38.477Z,11.65
2017-10-29T04:20:38.473Z,11.61
2017-10-29T04:21:38.447Z,11.62
2017-10-29T04:22:38.625Z,11.67
2017-10-29T04:23:38.758Z,11.57
2017-10-29T04:24:38.401Z,11.59
2017-10-29T04:25:38.711Z,11.64
2017-10-29T04:26:38.362Z,11.53
2017-10-29T04:27:38.354Z,11.57
2017-10-29T04:28:37.995Z,11.57
2017-10-29T04:29:38.650Z,11.53
2017-10-29T04:30:37.965Z,11.53
2017-10-29T04:31:38.295Z,11.53
2017-10-29T04:32:38.282Z,11.59
2017-10-29T04:33:38.249Z,11.61
2017-10-29T04:34:38.229Z,11.67
2017-10-29T04:35:37.886Z,11.59
2017-10-29T04:36:38.199Z,11.64
2017-10-29T04:37:38.558Z,11.62
2017-10-29T04:38:38.501Z,11.59
2017-10-29T04:39:38.152Z,11.56
2017-10-29T04:40:38.472Z,11.54
2017-10-29T04:41:38.117Z,11.54
2017-10-29T04:42:37.767Z,11.57
2017-10-29T04:43:38.434Z,11.64
2017-10-29T04:44:37.736Z,11.57
2017-10-29T04:45:37.920Z,11.64
2017-10-29T04:46:38.051Z,11.57
2017-10-29T04:47:37.691Z,11.54
2017-10-29T04:48:38.355Z,11.56
2017-10-29T04:49:38.342Z,11.64
2017-10-29T04:50:37.977Z,11.68
2017-10-29T04:51:38.289Z,11.62
2017-10-29T04:52:38.278Z,11.57
2017-10-29T04:53:38.268Z,11.54
2017-10-29T04:54:38.259Z,11.52
2017-10-29T04:55:37.756Z,11.52
2017-10-29T04:56:38.211Z,11.52
2017-10-29T04:57:37.878Z,11.57
2017-10-29T04:58:37.832Z,11.54
2017-10-29T04:59:37.845Z,11.53
2017-10-29T05:00:37.807Z,11.56
2017-10-29T05:01:38.327Z,11.52
2017-10-29T05:02:38.110Z,11.59
2017-10-29T05:03:37.769Z,11.56
2017-10-29T05:04:37.749Z,11.59
2017-10-29T05:05:38.059Z,11.57
2017-10-29T05:06:37.712Z,11.72
2017-10-29T05:07:37.703Z,11.83
2017-10-29T05:08:38.011Z,11.85
2017-10-29T05:09:37.662Z,11.82
2017-10-29T05:10:37.645Z,11.77
2017-10-29T05:11:37.628Z,11.85
2017-10-29T05:12:38.171Z,11.67
2017-10-29T05:13:37.259Z,11.62
2017-10-29T05:14:37.589Z,11.52
2017-10-29T05:15:37.232Z,11.49
2017-10-29T05:16:37.553Z,11.47
2017-10-29T05:17:37.870Z,11.43
2017-10-29T05:18:37.520Z,11.32
2017-10-29T05:19:37.174Z,11.43
2017-10-29T05:20:37.832Z,11.31
2017-10-29T05:21:37.157Z,11.39
2017-10-29T05:22:37.454Z,11.29
2017-10-29T05:23:37.113Z,11.32
2017-10-29T05:24:37.433Z,11.29
2017-10-29T05:25:37.402Z,11.35
2017-10-29T05:26:37.491Z,11.43
2017-10-29T05:27:37.706Z,11.39
2017-10-29T05:28:37.684Z,11.35
2017-10-29T05:29:37.663Z,11.39
2017-10-29T05:30:37.545Z,11.44
2017-10-29T05:31:36.964Z,11.34
2017-10-29T05:32:37.615Z,11.39
2017-10-29T05:33:37.607Z,11.36
2017-10-29T05:34:37.250Z,11.34
2017-10-29T05:35:37.240Z,11.36
2017-10-29T05:36:37.224Z,11.29
2017-10-29T05:37:37.535Z,11.25
2017-10-29T05:38:37.187Z,11.31
2017-10-29T05:39:37.170Z,11.2
2017-10-29T05:40:37.484Z,11.21
2017-10-29T05:41:37.576Z,11.19
2017-10-29T05:42:37.121Z,11.27
2017-10-29T05:43:36.773Z,11.24
2017-10-29T05:44:37.428Z,11.25
2017-10-29T05:45:37.408Z,11.21
2017-10-29T05:46:36.721Z,11.31
2017-10-29T05:47:36.712Z,11.25
2017-10-29T05:48:37.026Z,11.2
2017-10-29T05:49:37.008Z,11.24
2017-10-29T05:50:36.986Z,11.19
2017-10-29T05:51:36.967Z,11.2
2017-10-29T05:52:36.953Z,11.2
2017-10-29T05:53:36.606Z,11.21
2017-10-29T05:54:36.588Z,11.24
2017-10-29T05:55:36.909Z,11.21
2017-10-29T05:56:36.898Z,11.21
2017-10-29T05:57:37.231Z,11.17
2017-10-29T05:58:36.857Z,11.14
2017-10-29T05:59:37.171Z,11.1
2017-10-29T06:00:37.184Z,11.06
2017-10-29T06:01:37.142Z,11.11
2017-10-29T06:02:37.134Z,11.09
2017-10-29T06:03:37.103Z,11.11
2017-10-29T06:04:36.762Z,11.1
2017-10-29T06:05:36.400Z,11.03
2017-10-29T06:06:37.060Z,11.06
2017-10-29T06:07:37.050Z,11.01
2017-10-29T06:08:37.026Z,10.95
2017-10-29T06:09:36.671Z,10.98
2017-10-29T06:10:36.321Z,10.98
2017-10-29T06:11:36.637Z,10.98
2017-10-29T06:12:36.966Z,10.94
2017-10-29T06:13:36.945Z,10.94
2017-10-29T06:14:36.598Z,10.89
2017-10-29T06:15:36.573Z,10.89
2017-10-29T06:16:36.556Z,10.86
2017-10-29T06:17:36.638Z,10.81
2017-10-29T06:18:36.854Z,10.88
2017-10-29T06:19:36.840Z,10.88
2017-10-29T06:20:36.844Z,10.8
2017-10-29T06:21:36.813Z,10.77
2017-10-29T06:22:36.122Z,10.8
2017-10-29T06:23:36.441Z,10.77
2017-10-29T06:24:36.424Z,10.66
2017-10-29T06:25:36.752Z,10.73
2017-10-29T06:26:36.061Z,10.71
2017-10-29T06:27:36.709Z,10.7
2017-10-29T06:28:36.688Z,10.59
2017-10-29T06:29:36.679Z,10.53
2017-10-29T06:30:36.662Z,10.58
2017-10-29T06:31:36.310Z,10.52
2017-10-29T06:32:36.293Z,10.63
2017-10-29T06:33:36.607Z,10.51
2017-10-29T06:34:36.263Z,10.53
2017-10-29T06:35:36.578Z,10.46
2017-10-29T06:36:36.560Z,10.39
2017-10-29T06:37:36.211Z,10.43
2017-10-29T06:38:36.515Z,10.36
2017-10-29T06:39:36.167Z,10.34
2017-10-29T06:40:36.156Z,10.3
2017-10-29T06:41:36.468Z,10.26
2017-10-29T06:42:36.116Z,10.24
2017-10-29T06:43:36.102Z,10.33
2017-10-29T06:44:35.749Z,10.25
2017-10-29T06:45:36.091Z,10.25
2017-10-29T06:46:36.394Z,10.3
2017-10-29T06:47:35.700Z,10.33
2017-10-29T06:48:36.029Z,10.3
2017-10-29T06:49:35.998Z,10.37
2017-10-29T06:50:35.985Z,10.3
2017-10-29T06:51:36.295Z,10.28
2017-10-29T06:52:35.961Z,10.34
2017-10-29T06:53:35.943Z,10.34
2017-10-29T06:54:35.915Z,10.33
2017-10-29T06:55:36.240Z,10.32
2017-10-29T06:56:35.547Z,10.34
2017-10-29T06:57:35.863Z,10.42
2017-10-29T06:58:36.180Z,10.37
2017-10-29T06:59:35.495Z,10.36
2017-10-29T07:00:35.817Z,10.36
2017-10-29T07:01:36.136Z,10.39
2017-10-29T07:02:35.441Z,10.4
2017-10-29T07:03:35.767Z,10.42
2017-10-29T07:04:36.097Z,10.43
2017-10-29T07:05:35.732Z,10.3
2017-10-29T07:06:35.712Z,10.26
2017-10-29T07:07:36.040Z,10.36
2017-10-29T07:08:35.669Z,10.34
2017-10-29T07:09:36.008Z,10.4
2017-10-29T07:10:35.650Z,10.3
2017-10-29T07:11:35.975Z,10.33
2017-10-29T07:12:35.606Z,10.39
2017-10-29T07:13:35.922Z,10.34
2017-10-29T07:14:35.918Z,10.28
2017-10-29T07:15:35.912Z,10.28
2017-10-29T07:16:35.872Z,10.26
2017-10-29T07:17:35.860Z,10.34
2017-10-29T07:18:35.841Z,10.34
2017-10-29T07:19:35.150Z,10.24
2017-10-29T07:20:35.466Z,10.25
2017-10-29T07:21:35.791Z,10.32
2017-10-29T07:22:35.437Z,10.39
2017-10-29T07:23:35.413Z,10.36
2017-10-29T07:24:35.736Z,10.32
2017-10-29T07:25:35.053Z,10.36
2017-10-29T07:26:35.378Z,10.28
2017-10-29T07:27:35.347Z,10.32
2017-10-29T07:28:35.000Z,10.3
2017-10-29T07:29:35.648Z,10.33
2017-10-29T07:30:35.501Z,10.28
2017-10-29T07:31:35.277Z,10.24
2017-10-29T07:32:35.265Z,10.32
2017-10-29T07:33:35.353Z,10.28
2017-10-29T07:34:35.231Z,10.34
2017-10-29T07:35:35.546Z,10.36
2017-10-29T07:36:35.198Z,10.46
2017-10-29T07:37:34.844Z,10.39
2017-10-29T07:38:35.493Z,10.47
2017-10-29T07:39:35.145Z,10.63
2017-10-29T07:40:35.466Z,10.74
2017-10-29T07:41:35.466Z,10.81
2017-10-29T07:42:34.762Z,10.8
2017-10-29T07:43:35.508Z,10.83
2017-10-29T07:44:35.066Z,10.92
2017-10-29T07:45:35.383Z,10.92
2017-10-29T07:46:35.034Z,10.88
2017-10-29T07:47:35.010Z,10.88
2017-10-29T07:48:34.998Z,10.88
2017-10-29T07:49:34.648Z,10.77
2017-10-29T07:50:34.966Z,10.74
2017-10-29T07:51:34.942Z,10.8
2017-10-29T07:52:35.273Z,10.66
2017-10-29T07:53:34.587Z,10.71
2017-10-29T07:54:34.898Z,10.73
2017-10-29T07:55:34.883Z,10.68
2017-10-29T07:56:35.237Z,10.6
2017-10-29T07:57:35.183Z,10.68
2017-10-29T07:58:35.378Z,10.63
2017-10-29T07:59:35.149Z,10.58
2017-10-29T08:00:35.136Z,10.53
2017-10-29T08:01:34.784Z,10.58
2017-10-29T08:02:34.791Z,10.55
2017-10-29T08:03:34.748Z,10.62
2017-10-29T08:04:34.853Z,10.53
2017-10-29T08:05:34.722Z,10.6
2017-10-29T08:06:35.052Z,10.65
2017-10-29T08:07:34.692Z,10.6
2017-10-29T08:08:34.998Z,10.65
2017-10-29T08:09:34.982Z,10.66
2017-10-29T08:10:34.976Z,10.68
2017-10-29T08:11:34.302Z,10.76
2017-10-29T08:12:34.605Z,10.76
2017-10-29T08:13:34.934Z,10.7
2017-10-29T08:14:34.673Z,10.66
2017-10-29T08:15:34.556Z,10.66
2017-10-29T08:16:34.198Z,10.78
2017-10-29T08:17:34.866Z,10.83
2017-10-29T08:18:34.167Z,10.86
2017-10-29T08:19:34.933Z,10.83
2017-10-29T08:20:34.495Z,10.92
2017-10-29T08:21:34.786Z,11.06
2017-10-29T08:22:34.777Z,11.11
2017-10-29T08:23:34.095Z,11.24
2017-10-29T08:24:34.073Z,11.27
2017-10-29T08:25:34.403Z,11.28
2017-10-29T08:26:34.051Z,11.21
2017-10-29T08:27:34.705Z,11.24
2017-10-29T08:28:34.003Z,11.24
2017-10-29T08:29:34.675Z,11.21
2017-10-29T08:30:34.885Z,11.17
2017-10-29T08:31:34.297Z,11.2
2017-10-29T08:32:34.283Z,11.19
2017-10-29T08:33:34.279Z,11.29
2017-10-29T08:34:33.915Z,11.32
2017-10-29T08:35:34.565Z,11.25
2017-10-29T08:36:34.220Z,11.31
2017-10-29T08:37:34.199Z,11.28
2017-10-29T08:38:34.510Z,11.36
2017-10-29T08:39:34.502Z,11.36
2017-10-29T08:40:34.167Z,11.28
2017-10-29T08:41:34.135Z,11.28
2017-10-29T08:42:34.118Z,11.29
2017-10-29T08:43:34.433Z,11.29
2017-10-29T08:44:34.105Z,11.34
2017-10-29T08:45:34.078Z,11.31
2017-10-29T08:46:34.392Z,11.39
2017-10-29T08:47:34.048Z,11.28
2017-10-29T08:48:34.017Z,11.36
2017-10-29T08:49:34.008Z,11.35
2017-10-29T08:50:33.992Z,11.32
2017-10-29T08:51:33.974Z,11.34
2017-10-29T08:52:34.307Z,11.32
2017-10-29T08:53:33.937Z,11.25
2017-10-29T08:54:33.929Z,11.41
2017-10-29T08:55:33.569Z,11.43
2017-10-29T08:56:33.894Z,11.35
2017-10-29T08:57:33.885Z,11.47
2017-10-29T08:58:34.185Z,11.56
2017-10-29T08:59:33.510Z,11.7
2017-10-29T09:00:33.828Z,11.64
2017-10-29T09:01:33.809Z,11.7
2017-10-29T09:02:33.836Z,11.94
2017-10-29T09:03:34.114Z,12.04
2017-10-29T09:04:34.096Z,12.24
2017-10-29T09:05:34.158Z,12.23
2017-10-29T09:06:34.088Z,12.31
2017-10-29T09:07:33.760Z,12.39
2017-10-29T09:08:33.706Z,12.37
2017-10-29T09:09:33.689Z,12.39
2017-10-29T09:10:33.676Z,12.21
2017-10-29T09:11:33.328Z,12.19
2017-10-29T09:12:33.666Z,12.04
2017-10-29T09:13:34.196Z,12.04
2017-10-29T09:14:33.946Z,12.12
2017-10-29T09:15:33.605Z,12.06
2017-10-29T09:16:33.925Z,12.12
2017-10-29T09:17:33.893Z,12.06
2017-10-29T09:18:33.543Z,12.02
2017-10-29T09:19:33.212Z,11.93
2017-10-29T09:20:33.184Z,11.82
2017-10-29T09:21:33.506Z,11.9
2017-10-29T09:22:33.821Z,11.9
2017-10-29T09:23:33.481Z,11.9
2017-10-29T09:24:33.454Z,12.06
2017-10-29T09:25:33.118Z,12.04
2017-10-29T09:26:33.442Z,12.15
2017-10-29T09:27:33.420Z,12.21
2017-10-29T09:28:33.402Z,12.26
2017-10-29T09:29:33.735Z,12.38
2017-10-29T09:30:33.904Z,12.51
2017-10-29T09:31:33.362Z,12.59
2017-10-29T09:32:33.683Z,12.41
2017-10-29T09:33:33.664Z,12.26
2017-10-29T09:34:32.980Z,12.26
2017-10-29T09:35:32.963Z,12.2
2017-10-29T09:36:32.952Z,12.08
2017-10-29T09:37:33.279Z,12.01
2017-10-29T09:38:33.252Z,12.09
2017-10-29T09:39:33.576Z,12.05
2017-10-29T09:40:33.554Z,12.2
2017-10-29T09:41:33.213Z,12.24
2017-10-29T09:42:33.539Z,12.3
2017-10-29T09:43:33.517Z,12.19
2017-10-29T09:44:33.173Z,12.16
2017-10-29T09:45:33.147Z,12.24
2017-10-29T09:46:33.467Z,12.23
2017-10-29T09:47:33.121Z,12.24
2017-10-29T09:48:33.110Z,12.21
2017-10-29T09:49:33.435Z,12.2
2017-10-29T09:50:32.758Z,12.24
2017-10-29T09:51:33.445Z,12.21
2017-10-29T09:52:33.046Z,12.16
2017-10-29T09:53:32.896Z,12.21
2017-10-29T09:54:33.018Z,12.39
2017-10-29T09:55:32.996Z,12.34
2017-10-29T09:56:33.339Z,12.33
2017-10-29T09:57:32.654Z,12.38
2017-10-29T09:58:32.623Z,12.31
2017-10-29T09:59:32.614Z,12.31
2017-10-29T10:00:33.271Z,12.42
2017-10-29T10:01:32.921Z,12.33
2017-10-29T10:02:33.232Z,12.41
2017-10-29T10:03:32.885Z,12.44
2017-10-29T10:04:33.202Z,12.34
2017-10-29T10:05:32.530Z,12.21
2017-10-29T10:06:32.842Z,12.26
2017-10-29T10:07:32.500Z,12.21
2017-10-29T10:08:32.482Z,12.21
2017-10-29T10:09:32.808Z,12.23
2017-10-29T10:10:32.787Z,12.3
2017-10-29T10:11:32.785Z,12.24
2017-10-29T10:12:32.760Z,12.26
2017-10-29T10:13:32.411Z,12.27
2017-10-29T10:14:32.733Z,12.26
2017-10-29T10:15:33.046Z,12.3
2017-10-29T10:16:33.046Z,12.23
2017-10-29T10:17:32.694Z,12.37
2017-10-29T10:18:33.009Z,12.31
2017-10-29T10:19:32.667Z,12.31
2017-10-29T10:20:32.643Z,12.34
2017-10-29T10:21:32.979Z,12.45
2017-10-29T10:22:32.662Z,12.37
2017-10-29T10:23:32.611Z,12.48
2017-10-29T10:24:32.923Z,12.45
2017-10-29T10:25:32.914Z,12.49
2017-10-29T10:26:32.960Z,12.52
2017-10-29T10:27:32.560Z,12.63
2017-10-29T10:28:32.547Z,12.7
2017-10-29T10:29:32.520Z,12.77
2017-10-29T10:30:32.514Z,12.74
2017-10-29T10:31:32.536Z,12.71
2017-10-29T10:32:32.472Z,12.66
2017-10-29T10:33:32.829Z,12.7
2017-10-29T10:34:32.871Z,12.74
2017-10-29T10:35:32.113Z,12.97
2017-10-29T10:36:32.102Z,13.02
2017-10-29T10:37:32.077Z,13.24
2017-10-29T10:38:32.764Z,13.21
2017-10-29T10:39:32.408Z,13.22
2017-10-29T10:40:32.051Z,13.14
2017-10-29T10:41:32.369Z,13.11
2017-10-29T10:42:32.707Z,13.07
2017-10-29T10:43:32.337Z,13.11
2017-10-29T10:44:32.544Z,13.29
2017-10-29T10:45:32.655Z,13.15
2017-10-29T10:46:32.634Z,13.09
2017-10-29T10:47:31.961Z,13.14
2017-10-29T10:48:31.962Z,12.97
2017-10-29T10:49:32.264Z,12.71
2017-10-29T10:50:32.255Z,12.63
2017-10-29T10:51:32.242Z,12.67
2017-10-29T10:52:32.223Z,12.96
2017-10-29T10:53:32.214Z,12.87
2017-10-29T10:54:32.209Z,12.88
2017-10-29T10:55:32.188Z,12.71
2017-10-29T10:56:32.208Z,12.87
2017-10-29T10:57:32.184Z,13
2017-10-29T10:58:32.150Z,12.93
2017-10-29T10:59:32.137Z,12.96
2017-10-29T11:00:32.150Z,12.96
2017-10-29T11:01:32.111Z,12.71
2017-10-29T11:02:32.737Z,12.84
2017-10-29T11:03:32.434Z,12.82
2017-10-29T11:04:32.079Z,12.66
2017-10-29T11:05:31.736Z,12.85
2017-10-29T11:06:32.054Z,12.75
2017-10-29T11:07:32.368Z,12.78
2017-10-29T11:08:32.026Z,12.82
2017-10-29T11:09:32.354Z,12.82
2017-10-29T11:10:32.336Z,12.79
2017-10-29T11:11:31.654Z,12.74
2017-10-29T11:12:32.106Z,12.81
2017-10-29T11:13:31.628Z,12.78
2017-10-29T11:14:32.279Z,12.84
2017-10-29T11:15:32.266Z,13.07
2017-10-29T11:16:31.588Z,13.06
2017-10-29T11:17:31.907Z,13.07
2017-10-29T11:18:31.556Z,12.93
2017-10-29T11:19:31.880Z,12.78
2017-10-29T11:20:32.203Z,12.66
2017-10-29T11:21:32.188Z,12.44
2017-10-29T11:22:31.848Z,12.21
2017-10-29T11:23:31.842Z,12.08
2017-10-29T11:24:31.825Z,11.8
2017-10-29T11:25:32.130Z,11.59
2017-10-29T11:26:31.457Z,11.35
2017-10-29T11:27:31.796Z,11.35
2017-10-29T11:28:31.430Z,11.09
2017-10-29T11:29:31.755Z,10.95
2017-10-29T11:30:31.941Z,10.95
2017-10-29T11:31:31.733Z,10.78
2017-10-29T11:32:32.052Z,10.94
2017-10-29T11:33:31.697Z,11.01
2017-10-29T11:34:31.677Z,11.09
2017-10-29T11:35:32.003Z,11.16
2017-10-29T11:36:31.649Z,11.28
2017-10-29T11:37:31.633Z,11.34
2017-10-29T11:38:31.617Z,11.38
2017-10-29T11:39:31.325Z,11.44
2017-10-29T11:40:31.971Z,11.56
2017-10-29T11:41:31.572Z,11.7
2017-10-29T11:42:31.231Z,11.77
2017-10-29T11:43:31.545Z,11.97
2017-10-29T11:44:31.205Z,12.08
2017-10-29T11:45:31.857Z,12.23
2017-10-29T11:46:31.523Z,12.48
2017-10-29T11:47:31.500Z,12.67
2017-10-29T11:48:31.817Z,12.97
2017-10-29T11:49:31.472Z,13.24
2017-10-29T11:50:31.457Z,13.7
2017-10-29T11:51:31.115Z,13.79
2017-10-29T11:52:31.583Z,14.09
2017-10-29T11:53:31.441Z,14.21
2017-10-29T11:54:31.418Z,14.35
2017-10-29T11:55:31.410Z,14.5
2017-10-29T11:56:31.391Z,14.67
2017-10-29T11:57:31.378Z,14.94
2017-10-29T11:58:31.383Z,15.19
2017-10-29T11:59:31.030Z,15.35
2017-10-29T12:00:31.353Z,15.28
2017-10-29T12:01:31.685Z,15.41
2017-10-29T12:02:31.004Z,15.64
2017-10-29T12:03:31.676Z,15.43
2017-10-29T12:04:30.991Z,15.3
2017-10-29T12:05:31.660Z,15.38
2017-10-29T12:06:31.315Z,15.48
2017-10-29T12:07:31.307Z,15.64
2017-10-29T12:08:31.629Z,15.88
2017-10-29T12:09:31.288Z,15.78
2017-10-29T12:10:31.614Z,15.63
2017-10-29T12:11:31.272Z,15.46
2017-10-29T12:12:31.277Z,15.92
2017-10-29T12:13:31.261Z,15.66
2017-10-29T12:14:31.253Z,15.93
2017-10-29T12:15:31.581Z,16.12
2017-10-29T12:16:31.586Z,16.2
2017-10-29T12:17:31.241Z,16.42
2017-10-29T12:18:31.233Z,16.41
2017-10-29T12:19:30.894Z,16.74
2017-10-29T12:20:31.218Z,16.85
2017-10-29T12:21:31.236Z,16.93
2017-10-29T12:22:30.875Z,16.95
2017-10-29T12:23:31.228Z,16.85
2017-10-29T12:24:31.202Z,16.74
2017-10-29T12:25:31.192Z,16.53
2017-10-29T12:26:30.846Z,16.65
2017-10-29T12:27:31.194Z,16.74
2017-10-29T12:28:31.508Z,16.68
2017-10-29T12:29:31.631Z,16.5
2017-10-29T12:30:31.542Z,16.41
2017-10-29T12:31:31.518Z,16.58
2017-10-29T12:32:31.160Z,16.81
2017-10-29T12:33:30.833Z,17.2
2017-10-29T12:34:31.485Z,17.69
2017-10-29T12:35:31.474Z,17.73
2017-10-29T12:36:31.464Z,17.94
2017-10-29T12:37:31.137Z,17.95
2017-10-29T12:38:31.122Z,18.06
2017-10-29T12:39:31.468Z,18.12
2017-10-29T12:40:31.457Z,18.12
2017-10-29T12:41:31.123Z,18.12
2017-10-29T12:42:30.772Z,17.85
2017-10-29T12:43:31.104Z,18.06
2017-10-29T12:44:31.086Z,17.78
2017-10-29T12:45:31.427Z,17.46
2017-10-29T12:46:31.085Z,17.14
2017-10-29T12:47:30.756Z,16.85
2017-10-29T12:48:31.077Z,17.18
2017-10-29T12:49:31.076Z,17.38
2017-10-29T12:50:31.066Z,17.47
2017-10-29T12:51:30.730Z,17.57
2017-10-29T12:52:31.396Z,17.23
2017-10-29T12:53:30.723Z,16.85
2017-10-29T12:54:31.061Z,16.73